createdAt,value
2022-09-13T00:00:42.231Z,100.00
2022-09-13T00:03:31.870Z,100.00
2022-09-13T00:06:22.512Z,100.00
2022-09-13T00:09:10.844Z,100.00
2022-09-13T00:11:59.640Z,100.00
2022-09-13T00:14:48.428Z,100.00
2022-09-13T00:17:37.467Z,100.00
2022-09-13T00:20:25.860Z,100.00
2022-09-13T00:23:15.540Z,100.00
2022-09-13T00:26:15.591Z,100.00
2022-09-13T00:29:03.949Z,100.00
2022-09-13T00:32:01.456Z,100.00
2022-09-13T00:34:49.840Z,100.00
2022-09-13T00:37:47.334Z,100.00
2022-09-13T00:40:39.786Z,100.00
2022-09-13T00:43:43.859Z,100.00
2022-09-13T00:46:38.503Z,100.00
2022-09-13T00:49:35.209Z,100.00
2022-09-13T00:52:26.808Z,100.00
2022-09-13T00:55:22.257Z,100.00
2022-09-13T00:58:18.638Z,100.00
2022-09-13T01:01:11.790Z,100.00
2022-09-13T01:04:01.468Z,100.00
2022-09-13T01:07:02.098Z,100.00
2022-09-13T01:09:52.668Z,100.00
2022-09-13T01:12:47.037Z,100.00
2022-09-13T01:15:36.716Z,100.00
2022-09-13T01:18:28.185Z,100.00
2022-09-13T01:21:47.420Z,100.00
2022-09-13T01:25:20.960Z,100.00
2022-09-13T01:28:26.474Z,100.00
2022-09-13T01:31:26.496Z,100.00
2022-09-13T01:34:25.466Z,100.00
2022-09-13T01:37:28.506Z,100.00
2022-09-13T01:40:32.942Z,100.00
2022-09-13T01:43:33.467Z,100.00
2022-09-13T01:46:27.702Z,100.00
2022-09-13T01:49:20.734Z,100.00
2022-09-13T01:52:17.578Z,100.00
2022-09-13T01:55:10.875Z,100.00
2022-09-13T01:58:09.298Z,100.00
2022-09-13T02:01:05.931Z,100.00
2022-09-13T02:04:00.373Z,100.00
2022-09-13T02:06:55.573Z,100.00
2022-09-13T02:09:47.673Z,100.00
2022-09-13T02:12:41.661Z,100.00
2022-09-13T02:15:35.234Z,100.00
2022-09-13T02:18:29.542Z,100.00
2022-09-13T02:21:23.829Z,100.00
2022-09-13T02:24:17.335Z,100.00
2022-09-13T02:27:10.483Z,100.00
2022-09-13T02:30:04.137Z,100.00
2022-09-13T02:32:57.347Z,100.00
2022-09-13T02:35:52.343Z,100.00
2022-09-13T02:38:48.408Z,100.00
2022-09-13T02:41:44.476Z,100.00
2022-09-13T02:44:37.417Z,100.00
2022-09-13T02:47:46.161Z,100.00
2022-09-13T02:50:44.363Z,100.00
2022-09-13T02:53:43.959Z,100.00
2022-09-13T02:56:44.327Z,100.00
2022-09-13T02:59:33.661Z,100.00
2022-09-13T03:02:33.620Z,100.00
2022-09-13T03:05:22.077Z,100.00
2022-09-13T03:08:13.367Z,100.00
2022-09-13T03:11:15.321Z,100.00
2022-09-13T03:14:19.236Z,100.00
2022-09-13T03:17:16.122Z,100.00
2022-09-13T03:20:11.981Z,100.00
2022-09-13T03:23:19.475Z,100.00
2022-09-13T03:26:19.300Z,100.00
2022-09-13T03:29:25.353Z,100.00
2022-09-13T03:32:25.576Z,100.00
2022-09-13T03:35:23.394Z,100.00
2022-09-13T03:38:14.699Z,100.00
2022-09-13T03:41:09.250Z,100.00
2022-09-13T03:44:02.409Z,100.00
2022-09-13T03:46:57.678Z,100.00
2022-09-13T03:49:46.537Z,100.00
2022-09-13T03:52:35.961Z,100.00
2022-09-13T03:55:25.982Z,100.00
2022-09-13T03:58:17.402Z,100.00
2022-09-13T04:01:05.868Z,100.00
2022-09-13T04:03:57.151Z,100.00
2022-09-13T04:06:45.871Z,100.00
2022-09-13T04:09:34.411Z,100.00
2022-09-13T04:12:23.151Z,100.00
2022-09-13T04:15:11.515Z,100.00
2022-09-13T04:17:59.986Z,100.00
2022-09-13T04:20:57.282Z,100.00
2022-09-13T04:23:45.732Z,100.00
2022-09-13T04:26:35.030Z,100.00
2022-09-13T04:29:24.771Z,100.00
2022-09-13T04:32:13.123Z,100.00
2022-09-13T04:35:01.436Z,100.00
2022-09-13T04:37:51.246Z,100.00
2022-09-13T04:40:40.815Z,100.00
2022-09-13T04:43:29.254Z,100.00
2022-09-13T04:46:17.788Z,100.00
2022-09-13T04:49:06.233Z,100.00
2022-09-13T04:51:54.540Z,100.00
2022-09-13T04:54:44.623Z,100.00
2022-09-13T04:57:32.938Z,100.00
2022-09-13T05:00:21.456Z,100.00
2022-09-13T05:03:09.800Z,100.00
2022-09-13T05:06:09.847Z,100.00
2022-09-13T05:08:58.396Z,100.00
2022-09-13T05:11:57.335Z,100.00
2022-09-13T05:14:45.750Z,100.00
2022-09-13T05:17:34.112Z,100.00
2022-09-13T05:20:22.491Z,100.00
2022-09-13T05:23:19.901Z,100.00
2022-09-13T05:26:08.497Z,100.00
2022-09-13T05:28:58.649Z,100.00
2022-09-13T05:31:47.447Z,100.00
2022-09-13T05:34:35.780Z,100.00
2022-09-13T05:37:24.211Z,100.00
2022-09-13T05:40:13.035Z,100.00
2022-09-13T05:43:01.762Z,100.00
2022-09-13T05:45:51.838Z,100.00
2022-09-13T05:48:43.546Z,100.00
2022-09-13T05:51:31.891Z,100.00
2022-09-13T05:54:29.151Z,100.00
2022-09-13T05:57:17.553Z,100.00
2022-09-13T06:00:12.733Z,100.00
2022-09-13T06:03:02.636Z,100.00
2022-09-13T06:05:57.759Z,100.00
2022-09-13T06:08:46.686Z,100.00
2022-09-13T06:11:41.973Z,100.00
2022-09-13T06:14:30.301Z,100.00
2022-09-13T06:17:18.703Z,100.00
2022-09-13T06:20:10.702Z,100.00
2022-09-13T06:22:59.053Z,100.00
2022-09-13T06:26:01.458Z,100.00
2022-09-13T06:28:51.140Z,100.00
2022-09-13T06:31:48.739Z,100.00
2022-09-13T06:34:37.061Z,100.00
2022-09-13T06:37:36.049Z,100.00
2022-09-13T06:40:25.308Z,99.94
2022-09-13T06:43:13.903Z,98.76
2022-09-13T06:46:04.080Z,99.01
2022-09-13T06:49:02.103Z,96.97
2022-09-13T06:51:50.460Z,96.90
2022-09-13T06:54:49.351Z,96.51
2022-09-13T06:57:37.746Z,96.78
2022-09-13T07:00:35.262Z,94.01
2022-09-13T07:03:23.832Z,94.10
2022-09-13T07:06:22.918Z,95.09
2022-09-13T07:09:14.049Z,96.24
2022-09-13T07:12:06.634Z,93.47
2022-09-13T07:14:54.970Z,92.29
2022-09-13T07:17:43.410Z,93.04
2022-09-13T07:20:31.754Z,92.65
2022-09-13T07:23:29.418Z,92.72
2022-09-13T07:26:17.941Z,92.19
2022-09-13T07:29:19.483Z,91.11
2022-09-13T07:32:07.982Z,88.48
2022-09-13T07:35:06.908Z,89.64
2022-09-13T07:37:55.256Z,89.44
2022-09-13T07:40:55.676Z,87.72
2022-09-13T07:43:44.720Z,85.07
2022-09-13T07:46:36.650Z,84.39
2022-09-13T07:49:25.166Z,85.26
2022-09-13T07:52:22.744Z,84.54
2022-09-13T07:55:11.376Z,83.88
2022-09-13T07:58:08.917Z,82.76
2022-09-13T08:01:07.160Z,85.87
2022-09-13T08:03:58.752Z,84.02
2022-09-13T08:06:47.855Z,83.57
2022-09-13T08:09:45.012Z,83.90
2022-09-13T08:12:33.344Z,84.44
2022-09-13T08:15:21.654Z,83.59
2022-09-13T08:18:10.301Z,82.64
2022-09-13T08:21:00.928Z,82.32
2022-09-13T08:23:49.423Z,81.99
2022-09-13T08:26:38.127Z,81.96
2022-09-13T08:29:26.732Z,80.20
2022-09-13T08:32:15.105Z,81.08
2022-09-13T08:35:03.450Z,77.32
2022-09-13T08:37:53.282Z,74.86
2022-09-13T08:40:44.466Z,75.03
2022-09-13T08:43:45.607Z,76.06
2022-09-13T08:46:36.524Z,74.56
2022-09-13T08:49:29.519Z,75.36
2022-09-13T08:52:31.698Z,76.25
2022-09-13T08:55:34.407Z,75.78
2022-09-13T08:58:44.248Z,75.13
2022-09-13T09:01:45.809Z,75.63
2022-09-13T09:04:43.865Z,74.67
2022-09-13T09:07:36.929Z,71.51
2022-09-13T09:10:32.879Z,67.51
2022-09-13T09:13:29.677Z,66.73
2022-09-13T09:16:29.815Z,65.27
2022-09-13T09:19:27.227Z,66.01
2022-09-13T09:22:19.442Z,64.96
2022-09-13T09:25:12.558Z,64.42
2022-09-13T09:28:02.986Z,65.06
2022-09-13T09:31:01.979Z,64.61
2022-09-13T09:34:02.063Z,61.13
2022-09-13T09:36:58.086Z,63.32
2022-09-13T09:39:46.599Z,66.32
2022-09-13T09:42:46.890Z,65.32
2022-09-13T09:45:39.849Z,64.46
2022-09-13T09:48:32.128Z,64.08
2022-09-13T09:51:22.336Z,66.13
2022-09-13T09:54:13.888Z,65.79
2022-09-13T09:57:02.865Z,66.14
2022-09-13T09:59:51.133Z,64.00
2022-09-13T10:02:48.885Z,62.33
2022-09-13T10:05:37.723Z,61.70
2022-09-13T10:08:32.185Z,61.87
2022-09-13T10:11:23.169Z,61.77
2022-09-13T10:14:30.425Z,63.14
2022-09-13T10:17:23.644Z,62.03
2022-09-13T10:20:26.805Z,60.82
2022-09-13T10:23:22.212Z,60.85
2022-09-13T10:26:12.490Z,59.70
2022-09-13T10:29:06.940Z,60.71
2022-09-13T10:31:57.964Z,62.57
2022-09-13T10:34:47.620Z,63.51
2022-09-13T10:37:45.370Z,65.57
2022-09-13T10:40:38.599Z,62.34
2022-09-13T10:43:30.290Z,62.36
2022-09-13T10:46:24.803Z,61.52
2022-09-13T10:49:38.123Z,59.89
2022-09-13T10:52:32.949Z,58.71
2022-09-13T10:55:32.350Z,60.49
2022-09-13T10:58:21.092Z,58.86
2022-09-13T11:01:39.608Z,59.87
2022-09-13T11:04:45.005Z,63.68
2022-09-13T11:07:48.950Z,60.63
2022-09-13T11:10:46.170Z,62.19
2022-09-13T11:13:45.313Z,63.13
2022-09-13T11:16:44.531Z,60.29
2022-09-13T11:19:49.146Z,59.94
2022-09-13T11:22:58.426Z,61.93
2022-09-13T11:26:00.180Z,61.49
2022-09-13T11:28:59.406Z,60.69
2022-09-13T11:31:58.069Z,60.14
2022-09-13T11:34:56.473Z,59.95
2022-09-13T11:37:53.998Z,61.40
2022-09-13T11:40:55.582Z,59.86
2022-09-13T11:44:05.560Z,56.24
2022-09-13T11:47:05.558Z,56.38
2022-09-13T11:50:04.139Z,58.33
2022-09-13T11:53:07.273Z,56.75
2022-09-13T11:56:02.238Z,55.23
2022-09-13T11:58:54.875Z,56.79
2022-09-13T12:01:47.244Z,58.91
2022-09-13T12:04:55.055Z,57.54
2022-09-13T12:07:59.001Z,54.43
2022-09-13T12:10:51.820Z,51.53
2022-09-13T12:13:47.750Z,50.47
2022-09-13T12:16:39.871Z,50.94
2022-09-13T12:19:37.457Z,54.25
2022-09-13T12:22:31.039Z,53.70
2022-09-13T12:25:24.111Z,52.83
2022-09-13T12:28:20.819Z,53.06
2022-09-13T12:31:14.395Z,50.96
2022-09-13T12:34:08.495Z,47.56
2022-09-13T12:37:19.165Z,47.71
2022-09-13T12:40:23.591Z,46.74
2022-09-13T12:43:48.170Z,45.32
2022-09-13T12:47:14.341Z,49.47
2022-09-13T12:50:42.855Z,50.25
2022-09-13T12:54:02.653Z,51.24
2022-09-13T12:57:02.819Z,50.97
2022-09-13T13:00:04.205Z,53.47
2022-09-13T13:03:02.709Z,52.04
2022-09-13T13:05:56.831Z,50.80
2022-09-13T13:08:52.003Z,52.89
2022-09-13T13:11:46.601Z,54.39
2022-09-13T13:14:53.577Z,52.79
2022-09-13T13:17:46.020Z,53.09
2022-09-13T13:21:06.343Z,52.30
2022-09-13T13:24:31.933Z,53.34
2022-09-13T13:27:47.625Z,52.67
2022-09-13T13:30:53.350Z,51.93
2022-09-13T13:33:49.500Z,50.71
2022-09-13T13:36:50.706Z,50.94
2022-09-13T13:39:41.602Z,52.29
2022-09-13T13:42:35.444Z,53.24
2022-09-13T13:45:28.294Z,52.67
2022-09-13T13:48:16.866Z,51.11
2022-09-13T13:51:22.787Z,49.79
2022-09-13T13:54:53.569Z,50.21
2022-09-13T13:57:51.478Z,50.21
2022-09-13T14:00:49.193Z,50.28
2022-09-13T14:03:52.896Z,50.47
2022-09-13T14:06:53.621Z,52.22
2022-09-13T14:09:54.140Z,52.04
2022-09-13T14:12:57.680Z,52.23
2022-09-13T14:15:54.628Z,53.68
2022-09-13T14:18:56.468Z,53.12
2022-09-13T14:21:45.158Z,53.31
2022-09-13T14:24:46.513Z,51.82
2022-09-13T14:27:37.670Z,51.18
2022-09-13T14:30:30.926Z,50.64
2022-09-13T14:33:25.362Z,50.73
2022-09-13T14:36:20.064Z,49.89
2022-09-13T14:39:10.707Z,50.74
2022-09-13T14:42:02.295Z,50.54
2022-09-13T14:44:51.239Z,49.84
2022-09-13T14:47:49.580Z,51.64
2022-09-13T14:50:41.979Z,54.00
2022-09-13T14:53:33.668Z,52.00
2022-09-13T14:56:33.900Z,53.70
2022-09-13T14:59:28.624Z,53.10
2022-09-13T15:02:21.803Z,53.68
2022-09-13T15:05:15.916Z,53.83
2022-09-13T15:08:37.616Z,54.49
2022-09-13T15:11:32.388Z,54.53
2022-09-13T15:14:27.878Z,54.58
2022-09-13T15:17:16.627Z,54.50
2022-09-13T15:20:13.599Z,55.08
2022-09-13T15:23:01.975Z,55.55
2022-09-13T15:25:58.232Z,54.53
2022-09-13T15:28:51.806Z,54.77
2022-09-13T15:31:41.675Z,55.59
2022-09-13T15:34:47.512Z,56.35
2022-09-13T15:37:39.007Z,55.56
2022-09-13T15:40:29.952Z,55.79
2022-09-13T15:43:18.531Z,55.51
2022-09-13T15:46:07.513Z,56.29
2022-09-13T15:49:05.767Z,57.74
2022-09-13T15:51:55.751Z,56.45
2022-09-13T15:54:44.502Z,56.58
2022-09-13T15:57:33.315Z,56.16
2022-09-13T16:00:24.647Z,55.50
2022-09-13T16:03:13.142Z,55.66
2022-09-13T16:06:03.137Z,55.83
2022-09-13T16:08:51.431Z,56.55
2022-09-13T16:11:39.779Z,56.09
2022-09-13T16:14:28.127Z,56.06
2022-09-13T16:17:24.526Z,56.77
2022-09-13T16:20:14.835Z,56.68
2022-09-13T16:23:04.796Z,57.72
2022-09-13T16:25:56.887Z,58.15
2022-09-13T16:28:45.529Z,57.18
2022-09-13T16:31:34.096Z,57.73
2022-09-13T16:34:22.609Z,58.00
2022-09-13T16:37:15.664Z,57.27
2022-09-13T16:40:06.199Z,57.49
2022-09-13T16:42:55.922Z,58.65
2022-09-13T16:45:51.516Z,58.91
2022-09-13T16:48:40.034Z,59.44
2022-09-13T16:51:34.423Z,59.69
2022-09-13T16:54:22.902Z,59.72
2022-09-13T16:57:18.550Z,59.85
2022-09-13T17:00:10.895Z,59.46
2022-09-13T17:02:59.341Z,59.63
2022-09-13T17:06:03.154Z,59.03
2022-09-13T17:08:53.872Z,59.17
2022-09-13T17:11:44.187Z,59.55
2022-09-13T17:14:34.335Z,58.97
2022-09-13T17:17:23.304Z,59.26
2022-09-13T17:20:14.650Z,59.62
2022-09-13T17:23:03.530Z,58.79
2022-09-13T17:25:52.613Z,59.35
2022-09-13T17:28:41.398Z,58.96
2022-09-13T17:31:37.161Z,59.57
2022-09-13T17:34:25.912Z,59.67
2022-09-13T17:37:20.257Z,59.50
2022-09-13T17:40:11.829Z,59.43
2022-09-13T17:43:01.207Z,59.88
2022-09-13T17:48:40.956Z,60.04
2022-09-13T17:51:31.504Z,60.70
2022-09-13T17:54:29.076Z,60.31
2022-09-13T17:57:19.064Z,60.60
2022-09-13T18:00:10.278Z,60.57
2022-09-13T18:02:59.316Z,60.76
2022-09-13T18:05:58.599Z,60.71
2022-09-13T18:08:48.272Z,61.73
2022-09-13T18:11:37.984Z,61.91
2022-09-13T18:14:36.054Z,61.55
2022-09-13T18:17:25.070Z,61.74
2022-09-13T18:20:23.166Z,62.54
2022-09-13T18:23:13.602Z,62.13
2022-09-13T18:26:10.711Z,62.23
2022-09-13T18:29:02.921Z,63.00
2022-09-13T18:31:51.856Z,63.05
2022-09-13T18:34:47.322Z,62.85
2022-09-13T18:37:36.479Z,62.86
2022-09-13T18:40:34.168Z,63.22
2022-09-13T18:43:26.170Z,63.39
2022-09-13T18:46:16.529Z,64.12
2022-09-13T18:49:15.660Z,64.36
2022-09-13T18:52:04.373Z,65.02
2022-09-13T18:55:02.967Z,65.46
2022-09-13T18:57:53.618Z,65.55
2022-09-13T19:00:43.874Z,66.59
2022-09-13T19:03:33.573Z,67.03
2022-09-13T19:06:34.073Z,66.67
2022-09-13T19:09:24.158Z,66.94
2022-09-13T19:12:26.105Z,66.76
2022-09-13T19:15:17.140Z,66.83
2022-09-13T19:18:06.049Z,66.37
2022-09-13T19:21:03.507Z,66.05
2022-09-13T19:23:59.992Z,65.81
2022-09-13T19:26:51.759Z,66.73
2022-09-13T19:29:43.221Z,66.51
2022-09-13T19:32:35.793Z,66.97
2022-09-13T19:35:24.420Z,66.50
2022-09-13T19:38:19.596Z,66.38
2022-09-13T19:41:12.556Z,67.86
2022-09-13T19:44:04.414Z,68.29
2022-09-13T19:47:14.896Z,67.38
2022-09-13T19:50:05.093Z,67.22
2022-09-13T19:52:54.516Z,67.85
2022-09-13T19:55:51.790Z,67.65
2022-09-13T19:58:42.977Z,68.02
2022-09-13T20:01:41.017Z,68.64
2022-09-13T20:04:30.586Z,68.53
2022-09-13T20:07:27.562Z,67.28
2022-09-13T20:10:19.811Z,68.97
2022-09-13T20:13:09.348Z,68.45
2022-09-13T20:16:12.635Z,68.82
2022-09-13T20:19:07.815Z,69.07
2022-09-13T20:22:08.668Z,69.85
2022-09-13T20:25:00.246Z,70.64
2022-09-13T20:27:49.756Z,71.04
2022-09-13T20:30:54.383Z,70.42
2022-09-13T20:33:44.596Z,71.27
2022-09-13T20:36:44.231Z,71.11
2022-09-13T20:39:32.534Z,70.95
2022-09-13T20:42:29.670Z,70.67
2022-09-13T20:45:18.761Z,70.71
2022-09-13T20:48:14.416Z,69.94
2022-09-13T20:51:05.942Z,70.73
2022-09-13T20:53:56.091Z,69.53
2022-09-13T20:56:53.641Z,69.33
2022-09-13T20:59:44.273Z,69.08
2022-09-13T21:02:32.618Z,68.95
2022-09-13T21:05:27.087Z,70.13
2022-09-13T21:08:34.757Z,70.07
2022-09-13T21:11:25.371Z,69.39
2022-09-13T21:14:14.111Z,69.80
2022-09-13T21:17:08.008Z,69.33
2022-09-13T21:19:56.405Z,69.11
2022-09-13T21:22:50.512Z,69.29
2022-09-13T21:25:38.856Z,70.68
2022-09-13T21:28:27.172Z,70.94
2022-09-13T21:31:21.499Z,69.93
2022-09-13T21:34:15.589Z,69.75
2022-09-13T21:37:03.988Z,69.65
2022-09-13T21:39:58.496Z,70.15
2022-09-13T21:42:46.843Z,70.60
2022-09-13T21:45:35.314Z,71.30
2022-09-13T21:48:23.839Z,71.04
2022-09-13T21:51:21.338Z,71.90
2022-09-13T21:54:11.818Z,70.91
2022-09-13T21:57:00.131Z,69.76
2022-09-13T21:59:57.293Z,69.51
2022-09-13T22:02:45.701Z,69.45
2022-09-13T22:05:43.089Z,71.39
2022-09-13T22:08:34.167Z,71.22
2022-09-13T22:11:33.331Z,71.69
2022-09-13T22:14:22.683Z,71.52
2022-09-13T22:17:19.892Z,70.94
2022-09-13T22:20:08.475Z,71.73
2022-09-13T22:23:05.954Z,71.51
2022-09-13T22:25:55.756Z,71.19
2022-09-13T22:28:54.626Z,72.18
2022-09-13T22:31:44.378Z,72.01
2022-09-13T22:34:35.011Z,71.90
2022-09-13T22:37:23.373Z,72.78
2022-09-13T22:40:20.455Z,73.18
2022-09-13T22:43:10.355Z,72.43
2022-09-13T22:46:03.575Z,72.89
2022-09-13T22:48:53.802Z,72.74
2022-09-13T22:51:50.825Z,72.85
2022-09-13T22:54:39.199Z,72.99
2022-09-13T22:57:27.417Z,73.53
2022-09-13T23:00:23.436Z,72.92
2022-09-13T23:03:12.253Z,74.12
2022-09-13T23:06:07.927Z,73.96
2022-09-13T23:08:59.251Z,74.57
2022-09-13T23:11:48.417Z,74.29
2022-09-13T23:14:45.503Z,73.89
2022-09-13T23:17:35.113Z,75.06
2022-09-13T23:20:32.476Z,74.50
2022-09-13T23:23:20.809Z,75.24
2022-09-13T23:26:20.561Z,74.86
2022-09-13T23:29:09.357Z,74.99
2022-09-13T23:32:06.762Z,75.46
2022-09-13T23:34:56.555Z,75.48
2022-09-13T23:37:53.667Z,75.48
2022-09-13T23:40:42.092Z,75.95
2022-09-13T23:43:30.707Z,76.23
2022-09-13T23:46:20.082Z,76.36
2022-09-13T23:49:08.492Z,77.41
2022-09-13T23:52:04.319Z,77.35
2022-09-13T23:54:52.703Z,77.43
2022-09-13T23:57:46.704Z,76.47
